createdAt,value
2023-03-22T00:00:39.624Z,37.67
2023-03-22T00:03:07.560Z,36.80
2023-03-22T00:05:35.969Z,37.47
2023-03-22T00:08:07.170Z,38.58
2023-03-22T00:10:38.473Z,37.33
2023-03-22T00:13:07.832Z,37.17
2023-03-22T00:15:36.512Z,38.85
2023-03-22T00:18:06.082Z,40.00
2023-03-22T00:20:38.685Z,38.55
2023-03-22T00:23:09.324Z,38.50
2023-03-22T00:25:37.755Z,37.03
2023-03-22T00:28:06.240Z,36.53
2023-03-22T00:30:34.670Z,38.38
2023-03-22T00:33:03.033Z,37.92
2023-03-22T00:35:31.017Z,39.78
2023-03-22T00:38:06.407Z,39.30
2023-03-22T00:40:35.213Z,38.22
2023-03-22T00:43:03.590Z,36.92
2023-03-22T00:45:32.026Z,39.92
2023-03-22T00:48:00.101Z,39.55
2023-03-22T00:50:28.746Z,39.97
2023-03-22T00:52:57.033Z,38.65
2023-03-22T00:55:25.565Z,40.28
2023-03-22T00:57:54.259Z,40.42
2023-03-22T01:00:23.428Z,40.08
2023-03-22T01:02:53.542Z,40.72
2023-03-22T01:05:22.502Z,40.17
2023-03-22T01:07:55.185Z,38.83
2023-03-22T01:10:24.091Z,39.85
2023-03-22T01:12:52.568Z,38.83
2023-03-22T01:15:20.967Z,40.15
2023-03-22T01:17:49.456Z,41.20
2023-03-22T01:20:17.757Z,40.05
2023-03-22T01:22:45.866Z,41.25
2023-03-22T01:25:14.700Z,40.90
2023-03-22T01:27:43.469Z,41.25
2023-03-22T01:30:12.413Z,39.17
2023-03-22T01:32:40.364Z,40.80
2023-03-22T01:35:09.306Z,41.63
2023-03-22T01:37:39.009Z,41.90
2023-03-22T01:40:08.129Z,40.50
2023-03-22T01:42:37.198Z,38.55
2023-03-22T01:45:14.636Z,39.60
2023-03-22T01:48:01.792Z,38.80
2023-03-22T01:50:33.058Z,39.92
2023-03-22T01:53:05.127Z,41.40
2023-03-22T01:55:36.122Z,41.08
2023-03-22T01:58:11.869Z,42.70
2023-03-22T02:00:51.650Z,41.72
2023-03-22T02:03:51.679Z,41.92
2023-03-22T02:06:21.580Z,41.83
2023-03-22T02:08:58.076Z,41.03
2023-03-22T02:12:14.131Z,40.50
2023-03-22T02:18:33.858Z,40.95
2023-03-22T02:21:32.845Z,41.20
2023-03-22T02:24:33.014Z,41.95
2023-03-22T02:27:36.481Z,41.90
2023-03-22T02:30:22.614Z,40.58
2023-03-22T02:33:10.242Z,43.30
2023-03-22T02:35:53.944Z,38.67
2023-03-22T02:38:36.984Z,41.33
2023-03-22T02:41:22.580Z,41.45
2023-03-22T02:44:02.366Z,41.70
2023-03-22T02:47:00.515Z,40.55
2023-03-22T02:49:39.886Z,40.50
2023-03-22T02:52:21.661Z,40.95
2023-03-22T02:54:58.745Z,40.53
2023-03-22T02:57:56.434Z,40.72
2023-03-22T03:00:26.738Z,37.85
2023-03-22T03:03:02.256Z,40.90
2023-03-22T03:05:33.961Z,40.33
2023-03-22T03:08:02.832Z,39.75
2023-03-22T03:10:33.511Z,38.53
2023-03-22T03:13:01.754Z,39.35
2023-03-22T03:15:29.593Z,38.17
2023-03-22T03:18:22.704Z,37.67
2023-03-22T03:21:05.956Z,38.20
2023-03-22T03:23:54.439Z,39.10
2023-03-22T03:26:33.850Z,40.33
2023-03-22T03:29:19.734Z,40.58
2023-03-22T03:32:28.668Z,38.85
2023-03-22T03:35:01.962Z,39.70
2023-03-22T03:37:47.277Z,40.92
2023-03-22T03:40:21.404Z,39.95
2023-03-22T03:42:53.011Z,39.97
2023-03-22T03:45:22.252Z,39.63
2023-03-22T03:47:57.042Z,39.60
2023-03-22T03:50:26.905Z,39.60
2023-03-22T03:52:56.843Z,39.95
2023-03-22T03:55:26.997Z,39.65
2023-03-22T03:57:54.614Z,40.83
2023-03-22T04:00:22.872Z,39.95
2023-03-22T04:03:13.129Z,40.05
2023-03-22T04:06:06.562Z,44.58
2023-03-22T04:08:38.024Z,47.08
2023-03-22T04:11:07.273Z,44.33
2023-03-22T04:13:36.299Z,41.53
2023-03-22T04:16:09.782Z,45.60
2023-03-22T04:18:38.845Z,43.03
2023-03-22T04:21:09.249Z,43.83
2023-03-22T04:23:47.478Z,46.28
2023-03-22T04:26:16.682Z,42.92
2023-03-22T04:28:56.044Z,43.42
2023-03-22T04:31:24.597Z,45.38
2023-03-22T04:34:05.899Z,43.17
2023-03-22T04:36:56.802Z,40.75
2023-03-22T04:39:29.820Z,42.40
2023-03-22T04:42:09.616Z,43.58
2023-03-22T04:44:37.736Z,44.72
2023-03-22T04:47:06.228Z,44.58
2023-03-22T04:49:35.693Z,42.25
2023-03-22T04:52:04.449Z,46.95
2023-03-22T04:54:37.033Z,45.63
2023-03-22T04:57:05.983Z,41.90
2023-03-22T04:59:39.944Z,41.03
2023-03-22T05:02:07.699Z,41.65
2023-03-22T05:04:42.010Z,42.17
2023-03-22T05:07:19.806Z,42.17
2023-03-22T05:09:53.043Z,43.30
2023-03-22T05:12:21.627Z,44.58
2023-03-22T05:15:16.677Z,40.78
2023-03-22T05:17:44.735Z,43.20
2023-03-22T05:20:13.650Z,43.60
2023-03-22T05:22:45.985Z,43.00
2023-03-22T05:25:15.235Z,42.65
2023-03-22T05:27:45.261Z,43.03
2023-03-22T05:30:39.379Z,44.90
2023-03-22T05:33:22.021Z,44.03
2023-03-22T05:35:54.232Z,44.00
2023-03-22T05:38:25.502Z,42.83
2023-03-22T05:40:56.744Z,44.17
2023-03-22T05:43:24.966Z,44.85
2023-03-22T05:45:53.632Z,44.30
2023-03-22T05:48:36.515Z,45.45
2023-03-22T05:51:10.161Z,46.03
2023-03-22T05:53:38.828Z,46.67
2023-03-22T05:56:24.340Z,45.63
2023-03-22T05:58:58.235Z,45.90
2023-03-22T06:01:26.403Z,47.55
2023-03-22T06:04:30.485Z,46.75
2023-03-22T06:07:02.848Z,49.35
2023-03-22T06:09:54.801Z,46.45
2023-03-22T06:12:27.213Z,49.95
2023-03-22T06:15:17.552Z,46.95
2023-03-22T06:18:02.127Z,47.72
2023-03-22T06:20:33.820Z,50.15
2023-03-22T06:23:07.689Z,48.60
2023-03-22T06:25:36.568Z,49.05
2023-03-22T06:28:08.531Z,48.53
2023-03-22T06:30:38.415Z,46.92
2023-03-22T06:33:24.333Z,48.28
2023-03-22T06:35:59.054Z,45.92
2023-03-22T06:38:37.955Z,49.10
2023-03-22T06:41:06.540Z,46.03
2023-03-22T06:43:34.750Z,48.25
2023-03-22T06:46:14.473Z,52.30
2023-03-22T06:48:48.862Z,50.03
2023-03-22T06:51:17.899Z,48.28
2023-03-22T06:53:47.297Z,48.25
2023-03-22T06:56:14.976Z,46.95
2023-03-22T07:01:17.262Z,44.67
2023-03-22T07:03:45.627Z,45.28
2023-03-22T07:06:17.163Z,44.28
2023-03-22T07:08:50.811Z,45.70
2023-03-22T07:11:25.945Z,48.20
2023-03-22T07:13:59.764Z,45.92
2023-03-22T07:16:35.033Z,45.45
2023-03-22T07:19:05.441Z,48.67
2023-03-22T07:21:33.886Z,49.08
2023-03-22T07:24:09.080Z,45.28
2023-03-22T07:26:40.978Z,49.28
2023-03-22T07:29:10.889Z,47.55
2023-03-22T07:31:40.138Z,47.60
2023-03-22T07:34:12.237Z,48.65
2023-03-22T07:36:57.126Z,47.20
2023-03-22T07:39:25.204Z,46.90
2023-03-22T07:41:53.371Z,45.75
2023-03-22T07:44:21.780Z,44.35
2023-03-22T07:47:27.186Z,45.00
2023-03-22T07:50:24.986Z,47.47
2023-03-22T07:52:56.877Z,45.25
2023-03-22T07:55:25.432Z,47.60
2023-03-22T07:57:53.794Z,48.15
2023-03-22T08:00:21.851Z,45.95
2023-03-22T08:03:01.168Z,44.30
2023-03-22T08:05:51.781Z,44.97
2023-03-22T08:08:20.923Z,41.03
2023-03-22T08:10:50.808Z,43.28
2023-03-22T08:13:18.899Z,41.20
2023-03-22T08:15:46.840Z,44.30
2023-03-22T08:18:15.666Z,41.83
2023-03-22T08:20:45.676Z,43.05
2023-03-22T08:23:22.620Z,42.35
2023-03-22T08:26:12.846Z,40.28
2023-03-22T08:28:41.679Z,38.42
2023-03-22T08:31:17.266Z,36.08
2023-03-22T08:33:47.698Z,38.13
2023-03-22T08:36:18.462Z,37.88
2023-03-22T08:38:53.271Z,39.17
2023-03-22T08:41:28.137Z,36.58
2023-03-22T08:43:56.250Z,35.63
2023-03-22T08:46:24.632Z,38.20
2023-03-22T08:48:53.880Z,39.53
2023-03-22T08:51:30.889Z,37.70
2023-03-22T08:54:16.643Z,39.83
2023-03-22T08:56:54.342Z,38.20
2023-03-22T08:59:46.979Z,38.03
2023-03-22T09:02:44.378Z,37.20
2023-03-22T09:05:13.972Z,36.10
2023-03-22T09:07:43.058Z,35.10
2023-03-22T09:10:19.236Z,34.40
2023-03-22T09:12:49.831Z,36.95
2023-03-22T09:15:18.281Z,36.22
2023-03-22T09:17:53.474Z,33.08
2023-03-22T09:20:25.457Z,32.33
2023-03-22T09:22:53.321Z,34.47
2023-03-22T09:25:21.823Z,34.17
2023-03-22T09:27:50.665Z,31.75
2023-03-22T09:30:18.611Z,30.50
2023-03-22T09:32:46.713Z,31.95
2023-03-22T09:35:16.677Z,30.25
2023-03-22T09:37:59.943Z,30.45
2023-03-22T09:40:32.182Z,32.13
2023-03-22T09:43:04.809Z,29.77
2023-03-22T09:45:41.282Z,29.77
2023-03-22T09:48:18.713Z,28.58
2023-03-22T09:50:53.845Z,29.90
2023-03-22T09:53:23.781Z,31.92
2023-03-22T09:56:17.996Z,30.05
2023-03-22T09:58:53.433Z,27.95
2023-03-22T10:01:46.403Z,30.15
2023-03-22T10:04:52.518Z,29.00
2023-03-22T10:07:31.351Z,30.35
2023-03-22T10:10:18.084Z,29.60
2023-03-22T10:13:06.493Z,27.42
2023-03-22T10:15:52.311Z,26.65
2023-03-22T10:18:24.933Z,28.05
2023-03-22T10:21:02.049Z,27.20
2023-03-22T10:23:54.503Z,28.58
2023-03-22T10:26:46.301Z,30.02
2023-03-22T10:29:22.255Z,28.10
2023-03-22T10:31:50.632Z,29.20
2023-03-22T10:34:29.337Z,28.33
2023-03-22T10:37:01.894Z,28.83
2023-03-22T10:39:39.808Z,26.27
2023-03-22T10:42:13.140Z,28.90
2023-03-22T10:47:47.347Z,29.17
2023-03-22T10:50:26.641Z,28.30
2023-03-22T10:53:06.571Z,27.40
2023-03-22T10:55:41.822Z,28.10
2023-03-22T10:58:21.372Z,28.58
2023-03-22T11:00:53.734Z,27.83
2023-03-22T11:03:37.308Z,28.75
2023-03-22T11:06:13.375Z,27.08
2023-03-22T11:08:45.754Z,27.10
2023-03-22T11:11:29.991Z,24.30
2023-03-22T11:14:26.780Z,25.88
2023-03-22T11:17:08.032Z,25.33
2023-03-22T11:19:38.699Z,27.58
2023-03-22T11:22:26.932Z,27.90
2023-03-22T11:24:57.015Z,28.40
2023-03-22T11:27:31.300Z,29.05
2023-03-22T11:30:29.194Z,30.00
2023-03-22T11:33:17.954Z,28.45
2023-03-22T11:35:48.734Z,28.25
2023-03-22T11:38:31.082Z,27.77
2023-03-22T11:41:07.421Z,27.02
2023-03-22T11:43:39.486Z,23.67
2023-03-22T11:46:09.023Z,24.80
2023-03-22T11:48:38.201Z,22.98
2023-03-22T11:51:28.371Z,24.13
2023-03-22T11:54:08.069Z,25.13
2023-03-22T11:56:41.685Z,23.70
2023-03-22T11:59:28.750Z,22.25
2023-03-22T12:02:32.555Z,23.88
2023-03-22T12:07:41.738Z,22.55
2023-03-22T12:10:26.574Z,21.25
2023-03-22T12:12:59.487Z,23.92
2023-03-22T12:15:31.782Z,24.27
2023-03-22T12:18:07.973Z,25.33
2023-03-22T12:20:56.254Z,23.70
2023-03-22T12:23:29.880Z,23.58
2023-03-22T12:26:06.405Z,25.25
2023-03-22T12:28:42.137Z,22.17
2023-03-22T12:31:16.622Z,24.52
2023-03-22T12:33:48.235Z,24.33
2023-03-22T12:36:19.851Z,24.63
2023-03-22T12:39:09.569Z,24.85
2023-03-22T12:41:41.073Z,28.50
2023-03-22T12:44:21.572Z,23.63
2023-03-22T12:46:55.010Z,23.02
2023-03-22T12:49:40.760Z,24.33
2023-03-22T12:52:29.721Z,23.00
2023-03-22T12:55:02.265Z,23.27
2023-03-22T12:57:30.414Z,22.45
2023-03-22T13:00:01.821Z,22.60
2023-03-22T13:02:33.230Z,23.38
2023-03-22T13:05:06.929Z,21.83
2023-03-22T13:07:47.577Z,22.50
2023-03-22T13:10:34.244Z,23.85
2023-03-22T13:13:32.874Z,22.73
2023-03-22T13:16:11.046Z,21.98
2023-03-22T13:18:38.875Z,19.42
2023-03-22T13:21:21.384Z,21.13
2023-03-22T13:24:10.064Z,20.65
2023-03-22T13:26:46.216Z,19.25
2023-03-22T13:29:24.845Z,18.92
2023-03-22T13:32:01.645Z,18.33
2023-03-22T13:34:45.735Z,18.02
2023-03-22T13:37:38.635Z,17.95
2023-03-22T13:40:35.079Z,17.98
2023-03-22T13:43:25.302Z,19.60
2023-03-22T13:46:09.100Z,20.48
2023-03-22T13:48:44.848Z,19.50
2023-03-22T13:51:30.366Z,15.98
2023-03-22T13:54:07.157Z,16.88
2023-03-22T13:56:47.736Z,16.95
2023-03-22T13:59:29.913Z,15.35
2023-03-22T14:02:18.711Z,15.70
2023-03-22T14:04:56.146Z,17.13
2023-03-22T14:07:45.374Z,15.48
2023-03-22T14:10:23.992Z,18.45
2023-03-22T14:13:21.952Z,17.15
2023-03-22T14:15:59.946Z,16.33
2023-03-22T14:18:33.072Z,16.20
2023-03-22T14:21:05.359Z,17.23
